createdAt,value
2018-10-19T00:01:44.572Z,17.25
2018-10-19T00:04:18.377Z,17.27
2018-10-19T00:06:52.172Z,16.90
2018-10-19T00:09:25.869Z,16.62
2018-10-19T00:12:00.174Z,16.92
2018-10-19T00:14:33.753Z,15.55
2018-10-19T00:17:08.208Z,18.23
2018-10-19T00:19:42.023Z,18.37
2018-10-19T00:22:15.693Z,18.77
2018-10-19T00:24:49.279Z,16.48
2018-10-19T00:27:22.873Z,18.75
2018-10-19T00:29:56.427Z,16.85
2018-10-19T00:32:30.696Z,19.20
2018-10-19T00:35:05.302Z,18.95
2018-10-19T00:37:38.964Z,18.67
2018-10-19T00:40:12.739Z,19.08
2018-10-19T00:42:46.354Z,18.73
2018-10-19T00:45:20.668Z,19.02
2018-10-19T00:47:54.525Z,18.30
2018-10-19T00:50:28.181Z,19.95
2018-10-19T00:53:01.968Z,17.35
2018-10-19T00:55:35.584Z,18.05
2018-10-19T00:58:09.283Z,19.50
2018-10-19T01:00:42.973Z,18.05
2018-10-19T01:03:16.586Z,20.88
2018-10-19T01:05:50.886Z,20.30
2018-10-19T01:08:24.555Z,19.65
2018-10-19T01:10:58.136Z,21.80
2018-10-19T01:13:31.710Z,19.12
2018-10-19T01:16:05.345Z,19.00
2018-10-19T01:18:39.019Z,21.70
2018-10-19T01:21:12.674Z,20.33
2018-10-19T01:23:46.219Z,20.12
2018-10-19T01:26:19.919Z,20.62
2018-10-19T01:28:53.459Z,20.95
2018-10-19T01:31:27.754Z,20.90
2018-10-19T01:34:02.050Z,21.08
2018-10-19T01:36:35.654Z,20.17
2018-10-19T01:39:09.456Z,20.33
2018-10-19T01:41:42.983Z,19.50
2018-10-19T01:44:16.581Z,20.80
2018-10-19T01:46:51.108Z,19.30
2018-10-19T01:49:24.667Z,21.02
2018-10-19T01:51:58.297Z,21.40
2018-10-19T01:54:31.892Z,22.27
2018-10-19T01:57:05.623Z,21.10
2018-10-19T01:59:39.273Z,19.80
2018-10-19T02:02:12.902Z,21.15
2018-10-19T02:04:46.487Z,21.85
2018-10-19T02:07:20.109Z,19.42
2018-10-19T02:09:53.902Z,22.02
2018-10-19T02:12:27.440Z,22.48
2018-10-19T02:15:01.135Z,21.37
2018-10-19T02:17:34.740Z,23.65
2018-10-19T02:20:08.413Z,20.83
2018-10-19T02:22:42.009Z,22.45
2018-10-19T02:25:15.539Z,22.45
2018-10-19T02:27:49.206Z,20.80
2018-10-19T02:30:22.747Z,23.20
2018-10-19T02:32:56.517Z,20.85
2018-10-19T02:35:30.104Z,21.10
2018-10-19T02:38:03.741Z,21.20
2018-10-19T02:40:37.418Z,23.05
2018-10-19T02:43:11.134Z,23.90
2018-10-19T02:45:45.646Z,20.52
2018-10-19T02:48:19.274Z,23.23
2018-10-19T02:50:52.894Z,20.62
2018-10-19T02:53:27.302Z,23.58
2018-10-19T02:56:01.701Z,22.48
2018-10-19T02:58:36.103Z,23.45
2018-10-19T03:01:10.454Z,21.12
2018-10-19T03:03:44.050Z,23.10
2018-10-19T03:06:17.826Z,23.52
2018-10-19T03:08:52.217Z,22.73
2018-10-19T03:11:25.893Z,21.87
2018-10-19T03:13:59.490Z,23.12
2018-10-19T03:16:33.329Z,24.63
2018-10-19T03:19:07.125Z,24.00
2018-10-19T03:21:40.869Z,23.60
2018-10-19T03:24:14.414Z,24.35
2018-10-19T03:26:48.038Z,23.00
2018-10-19T03:29:21.890Z,23.00
2018-10-19T03:31:55.373Z,22.67
2018-10-19T03:34:29.719Z,23.30
2018-10-19T03:37:04.135Z,25.00
2018-10-19T03:39:37.739Z,23.33
2018-10-19T03:42:11.284Z,25.23
2018-10-19T03:44:44.818Z,24.80
2018-10-19T03:47:18.480Z,24.63
2018-10-19T03:49:52.178Z,22.98
2018-10-19T03:52:25.753Z,25.37
2018-10-19T03:54:59.363Z,23.73
2018-10-19T03:57:32.940Z,25.77
2018-10-19T04:00:06.560Z,24.17
2018-10-19T04:02:40.145Z,25.90
2018-10-19T04:05:13.802Z,25.52
2018-10-19T04:07:48.202Z,24.65
2018-10-19T04:10:21.785Z,26.83
2018-10-19T04:12:55.454Z,25.30
2018-10-19T04:15:28.989Z,24.05
2018-10-19T04:18:03.495Z,24.40
2018-10-19T04:20:37.054Z,26.45
2018-10-19T04:23:11.636Z,25.73
2018-10-19T04:25:45.245Z,26.40
2018-10-19T04:28:18.869Z,33.35
2018-10-19T04:30:52.536Z,27.25
2018-10-19T04:33:26.957Z,28.23
2018-10-19T04:36:00.594Z,27.15
2018-10-19T04:38:34.393Z,26.33
2018-10-19T04:41:08.084Z,27.40
2018-10-19T04:43:41.663Z,26.98
2018-10-19T04:46:15.255Z,27.90
2018-10-19T04:48:48.916Z,26.55
2018-10-19T04:51:22.474Z,25.62
2018-10-19T04:53:56.069Z,25.12
2018-10-19T04:56:29.754Z,27.62
2018-10-19T04:59:03.421Z,31.58
2018-10-19T05:01:37.924Z,27.23
2018-10-19T05:04:11.742Z,26.10
2018-10-19T05:06:45.422Z,28.30
2018-10-19T05:09:19.663Z,26.00
2018-10-19T05:11:53.260Z,26.75
2018-10-19T05:14:27.049Z,24.70
2018-10-19T05:17:00.773Z,25.65
2018-10-19T05:19:34.622Z,28.35
2018-10-19T05:22:08.324Z,26.40
2018-10-19T05:24:42.124Z,27.98
2018-10-19T05:27:15.744Z,25.52
2018-10-19T05:29:49.382Z,26.10
2018-10-19T05:32:22.987Z,25.40
2018-10-19T05:34:56.570Z,25.55
2018-10-19T05:37:30.399Z,26.08
2018-10-19T05:40:04.014Z,27.87
2018-10-19T05:42:37.754Z,27.83
2018-10-19T05:45:11.350Z,27.95
2018-10-19T05:47:45.688Z,25.75
2018-10-19T05:50:19.485Z,25.67
2018-10-19T05:52:53.243Z,27.75
2018-10-19T05:55:26.831Z,25.67
2018-10-19T05:58:02.635Z,28.83
2018-10-19T06:00:36.387Z,26.98
2018-10-19T06:03:09.949Z,28.75
2018-10-19T06:05:44.298Z,27.05
2018-10-19T06:08:18.003Z,27.80
2018-10-19T06:10:51.814Z,27.35
2018-10-19T06:13:25.666Z,26.08
2018-10-19T06:16:00.774Z,26.58
2018-10-19T06:18:34.350Z,26.40
2018-10-19T06:21:08.129Z,25.37
2018-10-19T06:23:42.360Z,28.50
2018-10-19T06:26:16.112Z,27.27
2018-10-19T06:28:49.817Z,27.25
2018-10-19T06:31:23.530Z,27.50
2018-10-19T06:33:58.070Z,28.25
2018-10-19T06:36:31.720Z,26.92
2018-10-19T06:39:05.352Z,25.95
2018-10-19T06:41:39.134Z,27.08
2018-10-19T06:44:12.731Z,25.25
2018-10-19T06:46:46.324Z,28.65
2018-10-19T06:49:19.915Z,27.98
2018-10-19T06:51:53.485Z,28.55
2018-10-19T06:54:27.078Z,27.70
2018-10-19T06:57:00.986Z,28.95
2018-10-19T06:59:34.772Z,28.65
2018-10-19T07:02:08.501Z,28.10
2018-10-19T07:04:41.893Z,28.00
2018-10-19T07:07:15.560Z,28.87
2018-10-19T07:09:49.274Z,28.00
2018-10-19T07:12:22.847Z,30.88
2018-10-19T07:14:57.427Z,28.70
2018-10-19T07:17:31.190Z,28.23
2018-10-19T07:20:04.785Z,28.40
2018-10-19T07:22:38.385Z,26.85
2018-10-19T07:25:11.952Z,30.27
2018-10-19T07:27:46.413Z,29.55
2018-10-19T07:30:20.190Z,28.10
2018-10-19T07:32:53.779Z,29.90
2018-10-19T07:35:27.493Z,27.92
2018-10-19T07:38:01.151Z,27.17
2018-10-19T07:40:34.709Z,30.42
2018-10-19T07:43:08.514Z,28.65
2018-10-19T07:45:42.198Z,29.33
2018-10-19T07:48:15.894Z,29.85
2018-10-19T07:50:49.534Z,30.17
2018-10-19T07:53:23.290Z,30.40
2018-10-19T07:55:57.116Z,30.10
2018-10-19T07:58:30.885Z,28.50
2018-10-19T08:01:04.659Z,31.60
2018-10-19T08:03:38.259Z,30.30
2018-10-19T08:06:11.902Z,28.90
2018-10-19T08:08:45.537Z,32.55
2018-10-19T08:11:19.294Z,31.58
2018-10-19T08:13:52.908Z,31.75
2018-10-19T08:16:26.675Z,28.33
2018-10-19T08:19:00.375Z,30.67
2018-10-19T08:21:34.282Z,29.90
2018-10-19T08:24:08.120Z,31.48
2018-10-19T08:26:41.876Z,32.17
2018-10-19T08:29:15.629Z,32.22
2018-10-19T08:31:49.217Z,29.20
2018-10-19T08:34:22.782Z,29.50
2018-10-19T08:36:56.427Z,31.55
2018-10-19T08:39:30.955Z,29.80
2018-10-19T08:42:04.562Z,31.77
2018-10-19T08:44:38.204Z,30.33
2018-10-19T08:47:11.859Z,31.00
2018-10-19T08:49:46.252Z,29.92
2018-10-19T08:52:19.874Z,31.10
2018-10-19T08:54:53.645Z,33.88
2018-10-19T08:57:27.214Z,31.87
2018-10-19T09:00:00.852Z,30.37
2018-10-19T09:02:34.542Z,30.35
2018-10-19T09:05:08.207Z,31.17
2018-10-19T09:07:41.982Z,30.75
2018-10-19T09:10:15.563Z,32.65
2018-10-19T09:12:49.304Z,31.50
2018-10-19T09:15:23.101Z,32.60
2018-10-19T09:17:56.637Z,32.17
2018-10-19T09:20:31.035Z,33.17
2018-10-19T09:23:04.706Z,33.40
2018-10-19T09:25:38.292Z,32.50
2018-10-19T09:28:12.149Z,33.03
2018-10-19T09:30:45.708Z,34.47
2018-10-19T09:33:19.451Z,29.70
2018-10-19T09:35:53.139Z,32.42
2018-10-19T09:38:27.722Z,34.27
2018-10-19T09:41:01.414Z,32.90
2018-10-19T09:43:35.243Z,33.47
2018-10-19T09:46:09.655Z,35.00
2018-10-19T09:48:43.264Z,30.47
2018-10-19T09:51:17.112Z,31.23
2018-10-19T09:53:50.793Z,36.58
2018-10-19T09:56:24.791Z,32.42
2018-10-19T09:58:58.413Z,34.53
2018-10-19T10:01:32.552Z,34.67
2018-10-19T10:04:06.731Z,36.50
2018-10-19T10:06:40.541Z,33.40
2018-10-19T10:09:14.614Z,35.13
2018-10-19T10:11:48.454Z,34.60
2018-10-19T10:14:22.119Z,32.20
2018-10-19T10:16:56.135Z,34.00
2018-10-19T10:19:35.076Z,34.20
2018-10-19T10:22:09.468Z,34.23
2018-10-19T10:24:45.587Z,33.67
2018-10-19T10:27:19.422Z,36.67
2018-10-19T10:29:53.177Z,35.07
2018-10-19T10:32:27.221Z,34.40
2018-10-19T10:35:01.176Z,33.57
2018-10-19T10:37:35.009Z,35.22
2018-10-19T10:40:09.200Z,34.83
2018-10-19T10:42:43.877Z,34.57
2018-10-19T10:45:22.855Z,32.53
2018-10-19T10:47:56.982Z,36.70
2018-10-19T10:50:30.818Z,36.80
2018-10-19T10:53:04.710Z,34.30
2018-10-19T10:55:38.499Z,35.07
2018-10-19T10:58:13.016Z,34.97
2018-10-19T11:00:49.300Z,33.90
2018-10-19T11:03:23.811Z,35.15
2018-10-19T11:05:57.398Z,36.07
2018-10-19T11:08:30.970Z,36.97
2018-10-19T11:11:04.714Z,35.70
2018-10-19T11:13:38.434Z,32.97
2018-10-19T11:16:13.050Z,37.03
2018-10-19T11:18:46.561Z,35.20
2018-10-19T11:21:21.080Z,36.33
2018-10-19T11:23:55.500Z,34.53
2018-10-19T11:26:29.269Z,34.80
2018-10-19T11:29:02.907Z,37.73
2018-10-19T11:31:36.499Z,35.37
2018-10-19T11:34:10.640Z,34.23
2018-10-19T11:36:44.331Z,34.95
2018-10-19T11:39:18.114Z,34.85
2018-10-19T11:41:51.943Z,36.72
2018-10-19T11:44:26.473Z,37.10
2018-10-19T11:47:00.032Z,34.78
2018-10-19T11:49:34.449Z,36.05
2018-10-19T11:52:08.281Z,35.88
2018-10-19T11:54:41.986Z,36.40
2018-10-19T11:57:16.930Z,34.80
2018-10-19T11:59:50.386Z,35.60
2018-10-19T12:02:24.087Z,33.55
2018-10-19T12:04:57.752Z,36.85
2018-10-19T12:07:31.349Z,54.85
2018-10-19T12:10:05.003Z,36.47
2018-10-19T12:12:38.907Z,35.05
2018-10-19T12:15:13.459Z,33.75
2018-10-19T12:17:47.012Z,34.55
2018-10-19T12:20:21.397Z,31.85
2018-10-19T12:22:55.119Z,34.42
2018-10-19T12:25:28.733Z,32.72
2018-10-19T12:28:02.274Z,35.13
2018-10-19T12:30:36.622Z,31.33
2018-10-19T12:33:10.513Z,33.78
2018-10-19T12:35:44.043Z,34.00
2018-10-19T12:38:17.598Z,35.60
2018-10-19T12:40:51.304Z,34.13
2018-10-19T12:43:24.879Z,33.47
2018-10-19T12:46:10.474Z,33.72
2018-10-19T12:48:44.366Z,32.35
2018-10-19T12:51:18.132Z,35.42
2018-10-19T12:53:52.590Z,33.50
2018-10-19T12:56:26.099Z,32.85
2018-10-19T12:58:59.757Z,35.33
2018-10-19T13:01:33.349Z,33.05
2018-10-19T13:04:07.921Z,34.75
2018-10-19T13:06:42.306Z,33.92
2018-10-19T13:09:15.995Z,32.28
2018-10-19T13:11:49.740Z,34.53
2018-10-19T13:14:23.708Z,34.40
2018-10-19T13:16:57.549Z,34.47
2018-10-19T13:19:31.317Z,31.17
2018-10-19T13:22:05.505Z,36.03
2018-10-19T13:24:39.224Z,36.65
2018-10-19T13:27:15.730Z,35.42
2018-10-19T13:29:50.756Z,32.15
2018-10-19T13:32:28.114Z,34.45
2018-10-19T13:35:05.508Z,37.88
2018-10-19T13:37:40.253Z,33.25
2018-10-19T13:40:14.086Z,34.88
2018-10-19T13:42:47.877Z,32.55
2018-10-19T13:45:21.689Z,35.05
2018-10-19T13:47:55.459Z,33.40
2018-10-19T13:50:29.104Z,34.75
2018-10-19T13:53:02.798Z,36.17
2018-10-19T13:55:36.552Z,39.17
2018-10-19T13:58:10.345Z,34.28
2018-10-19T14:00:45.039Z,32.88
2018-10-19T14:03:18.898Z,34.65
2018-10-19T14:05:52.509Z,32.85
2018-10-19T14:08:26.044Z,31.85
2018-10-19T14:10:59.895Z,31.98
2018-10-19T14:13:33.862Z,35.50
2018-10-19T14:16:07.548Z,31.85
2018-10-19T14:18:41.883Z,32.50
2018-10-19T14:21:15.608Z,30.52
2018-10-19T14:23:49.203Z,32.15
2018-10-19T14:26:23.714Z,31.00
2018-10-19T14:28:57.431Z,32.42
2018-10-19T14:31:31.099Z,32.35
2018-10-19T14:34:04.821Z,30.88
2018-10-19T14:36:38.543Z,30.25
2018-10-19T14:39:12.216Z,32.95
2018-10-19T14:41:46.886Z,29.98
2018-10-19T14:44:20.605Z,32.45
2018-10-19T14:46:54.414Z,31.08
2018-10-19T14:49:28.030Z,31.00
2018-10-19T14:52:01.711Z,31.33
2018-10-19T14:54:35.673Z,32.38
2018-10-19T14:57:09.538Z,30.10
2018-10-19T14:59:43.700Z,33.80
2018-10-19T15:02:18.303Z,31.40
2018-10-19T15:04:51.960Z,33.00
2018-10-19T15:07:25.769Z,31.00
2018-10-19T15:09:59.547Z,29.37
2018-10-19T15:12:32.953Z,29.85
2018-10-19T15:15:06.498Z,32.67
2018-10-19T15:17:40.378Z,31.95
2018-10-19T15:20:14.064Z,30.48
2018-10-19T15:22:47.766Z,31.83
2018-10-19T15:25:21.362Z,32.33
2018-10-19T15:27:54.995Z,33.53
2018-10-19T15:30:28.753Z,31.67
2018-10-19T15:33:02.522Z,34.05
2018-10-19T15:35:36.071Z,32.78
2018-10-19T15:38:09.658Z,31.25
2018-10-19T15:40:43.490Z,32.83
2018-10-19T15:43:17.218Z,32.28
2018-10-19T15:45:50.806Z,34.88
2018-10-19T15:48:25.397Z,33.58
2018-10-19T15:50:59.164Z,31.80
2018-10-19T15:53:32.917Z,33.10
2018-10-19T15:56:06.499Z,33.28
2018-10-19T15:58:40.082Z,32.97
2018-10-19T16:01:13.687Z,34.03
2018-10-19T16:03:47.385Z,33.17
2018-10-19T16:06:20.988Z,31.27
2018-10-19T16:08:54.602Z,32.70
2018-10-19T16:11:28.188Z,32.75
2018-10-19T16:14:01.791Z,34.75
2018-10-19T16:16:36.329Z,32.13
2018-10-19T16:19:10.092Z,33.33
2018-10-19T16:21:43.691Z,31.12
2018-10-19T16:24:17.352Z,32.08
2018-10-19T16:26:50.973Z,31.87
2018-10-19T16:29:25.440Z,32.65
2018-10-19T16:31:59.221Z,29.67
2018-10-19T16:34:32.865Z,31.37
2018-10-19T16:37:06.573Z,31.70
2018-10-19T16:39:40.403Z,31.20
2018-10-19T16:42:14.142Z,30.40
2018-10-19T16:44:48.495Z,31.08
2018-10-19T16:47:22.301Z,33.00
2018-10-19T16:49:56.019Z,29.87
2018-10-19T16:52:29.949Z,31.10
2018-10-19T16:55:04.342Z,30.37
2018-10-19T16:57:37.941Z,31.45
2018-10-19T17:00:11.678Z,32.50
2018-10-19T17:02:45.539Z,31.27
2018-10-19T17:05:19.296Z,30.52
2018-10-19T17:07:52.883Z,30.70
2018-10-19T17:10:26.688Z,31.77
2018-10-19T17:13:00.460Z,30.83
2018-10-19T17:15:34.131Z,32.08
2018-10-19T17:18:07.817Z,31.33
2018-10-19T17:20:41.372Z,33.38
2018-10-19T17:23:16.024Z,32.47
2018-10-19T17:25:49.762Z,31.70
2018-10-19T17:28:23.573Z,33.10
2018-10-19T17:30:58.054Z,30.58
2018-10-19T17:33:31.657Z,31.40
2018-10-19T17:36:05.292Z,32.10
2018-10-19T17:38:38.876Z,29.52
2018-10-19T17:41:12.721Z,32.70
2018-10-19T17:43:46.495Z,31.50
2018-10-19T17:46:20.167Z,31.52
2018-10-19T17:48:54.013Z,31.50
2018-10-19T17:51:27.898Z,31.65
2018-10-19T17:54:01.635Z,32.45
2018-10-19T17:56:35.217Z,33.17
2018-10-19T17:59:09.028Z,33.42
2018-10-19T18:01:42.698Z,33.47
2018-10-19T18:04:16.349Z,31.80
2018-10-19T18:06:49.984Z,30.25
2018-10-19T18:09:23.658Z,34.10
2018-10-19T18:11:57.489Z,38.05
2018-10-19T18:14:32.031Z,31.60
2018-10-19T18:17:05.662Z,36.88
2018-10-19T18:19:39.462Z,34.67
2018-10-19T18:22:13.571Z,35.83
2018-10-19T18:24:47.049Z,33.17
2018-10-19T18:27:20.653Z,34.45
2018-10-19T18:29:54.438Z,34.20
2018-10-19T18:32:28.095Z,35.10
2018-10-19T18:35:02.595Z,31.52
2018-10-19T18:37:36.431Z,32.78
2018-10-19T18:40:10.025Z,34.30
2018-10-19T18:42:43.753Z,34.88
2018-10-19T18:45:17.524Z,32.05
2018-10-19T18:47:51.201Z,36.75
2018-10-19T18:50:25.095Z,35.60
2018-10-19T18:52:59.390Z,32.58
2018-10-19T18:55:33.811Z,32.55
2018-10-19T18:58:07.563Z,33.90
2018-10-19T19:00:41.182Z,30.12
2018-10-19T19:03:14.987Z,32.63
2018-10-19T19:05:49.495Z,34.97
2018-10-19T19:08:23.873Z,33.42
2018-10-19T19:10:57.571Z,34.22
2018-10-19T19:13:31.155Z,33.40
2018-10-19T19:16:05.001Z,30.48
2018-10-19T19:18:38.888Z,34.05
2018-10-19T19:21:12.620Z,34.08
2018-10-19T19:23:46.260Z,33.45
2018-10-19T19:26:20.166Z,34.20
2018-10-19T19:28:53.788Z,35.78
2018-10-19T19:31:28.334Z,34.53
2018-10-19T19:34:19.782Z,32.30
2018-10-19T19:36:54.356Z,34.38
2018-10-19T19:39:28.132Z,33.53
2018-10-19T19:42:18.247Z,32.88
2018-10-19T19:44:51.917Z,33.53
2018-10-19T19:47:25.554Z,31.08
2018-10-19T19:50:00.147Z,32.60
2018-10-19T19:52:33.870Z,31.05
2018-10-19T19:55:07.572Z,35.63
2018-10-19T19:57:41.315Z,31.65
2018-10-19T20:00:14.916Z,35.28
2018-10-19T20:02:48.510Z,33.88
2018-10-19T20:05:22.374Z,35.00
2018-10-19T20:07:56.088Z,36.08
2018-10-19T20:10:29.650Z,34.95
2018-10-19T20:13:03.248Z,33.85
2018-10-19T20:15:37.760Z,34.63
2018-10-19T20:18:11.512Z,34.05
2018-10-19T20:20:45.321Z,35.90
2018-10-19T20:23:18.929Z,34.63
2018-10-19T20:25:52.520Z,36.35
2018-10-19T20:28:27.123Z,35.63
2018-10-19T20:31:01.505Z,34.40
2018-10-19T20:33:35.402Z,33.10
2018-10-19T20:36:09.215Z,35.47
2018-10-19T20:38:42.874Z,33.92
2018-10-19T20:41:16.719Z,31.58
2018-10-19T20:43:50.437Z,34.05
2018-10-19T20:46:24.566Z,33.90
2018-10-19T20:48:58.284Z,33.53
2018-10-19T20:51:31.880Z,36.10
2018-10-19T20:54:11.511Z,35.55
2018-10-19T20:56:45.291Z,35.90
2018-10-19T20:59:19.130Z,34.90
2018-10-19T21:01:52.770Z,37.88
2018-10-19T21:04:26.604Z,36.05
2018-10-19T21:07:00.234Z,35.88
2018-10-19T21:09:33.803Z,35.05
2018-10-19T21:12:07.382Z,34.33
2018-10-19T21:14:40.938Z,35.88
2018-10-19T21:17:14.760Z,35.63
2018-10-19T21:19:48.301Z,37.40
2018-10-19T21:22:21.866Z,36.80
2018-10-19T21:24:55.446Z,37.03
2018-10-19T21:27:29.120Z,37.88
2018-10-19T21:30:02.814Z,33.70
2018-10-19T21:32:36.565Z,35.75
2018-10-19T21:35:10.404Z,35.08
2018-10-19T21:37:44.925Z,36.15
2018-10-19T21:40:18.674Z,35.97
2018-10-19T21:42:52.437Z,36.03
2018-10-19T21:45:26.807Z,35.72
2018-10-19T21:48:00.382Z,37.30
2018-10-19T21:50:33.933Z,36.03
2018-10-19T21:53:07.651Z,37.55
2018-10-19T21:55:41.189Z,34.67
2018-10-19T21:58:14.979Z,36.83
2018-10-19T22:00:49.435Z,34.95
2018-10-19T22:03:23.036Z,36.13
2018-10-19T22:05:57.505Z,37.10
2018-10-19T22:08:31.313Z,35.38
2018-10-19T22:11:05.745Z,34.85
2018-10-19T22:13:40.338Z,36.08
2018-10-19T22:16:14.651Z,35.55
2018-10-19T22:18:48.518Z,34.67
2018-10-19T22:21:22.361Z,36.58
2018-10-19T22:23:56.011Z,37.50
2018-10-19T22:26:29.916Z,38.47
2018-10-19T22:29:03.501Z,38.03
2018-10-19T22:31:37.199Z,36.20
2018-10-19T22:34:10.986Z,35.42
2018-10-19T22:36:44.487Z,35.60
2018-10-19T22:39:18.310Z,36.15
2018-10-19T22:41:51.853Z,35.63
2018-10-19T22:44:25.754Z,35.30
2018-10-19T22:46:59.469Z,37.00
2018-10-19T22:49:33.106Z,35.95
2018-10-19T22:52:07.430Z,33.90
2018-10-19T22:54:41.885Z,36.75
2018-10-19T22:57:15.615Z,35.92
2018-10-19T22:59:49.251Z,36.92
2018-10-19T23:02:22.822Z,38.78
2018-10-19T23:04:56.639Z,37.20
2018-10-19T23:07:30.283Z,34.95
2018-10-19T23:10:04.621Z,36.20
2018-10-19T23:12:38.226Z,37.58
2018-10-19T23:15:11.846Z,41.17
2018-10-19T23:17:45.384Z,39.10
2018-10-19T23:20:18.925Z,37.22
2018-10-19T23:22:52.543Z,36.97
2018-10-19T23:25:26.147Z,43.53
2018-10-19T23:27:59.790Z,37.70
2018-10-19T23:30:33.373Z,40.85
2018-10-19T23:33:07.171Z,41.15
2018-10-19T23:35:40.763Z,37.88
2018-10-19T23:38:14.385Z,37.95
2018-10-19T23:40:48.122Z,38.03
2018-10-19T23:43:21.695Z,39.15
2018-10-19T23:45:55.284Z,47.45
2018-10-19T23:48:28.871Z,39.85
2018-10-19T23:51:02.531Z,37.65
2018-10-19T23:53:37.024Z,38.22
2018-10-19T23:56:11.528Z,38.30
2018-10-19T23:58:45.141Z,39.50
